Time;durP1;ratioP1;P1;durP2;ratioP2;P2;SDS_P1;SDS_P2;PMS_P1;PMS_P2;Temp;Humidity;BMP_temperature;BMP_pressure;BME280_temperature;BME280_humidity;BME280_pressure;Samples;Min_cycle;Max_cycle;Signal;HPM_P1;HPM_P2
2024/04/04 00:00:09;;;;;;;;;2.83;2.00;;;;;16.16;66.32;100871.31;2038838;27;2734063;-69
2024/04/04 00:01:21;;;;;;;;;4.25;2.75;;;;;16.15;66.33;100869.56;2025670;27;1821150;-70
2024/04/04 00:02:31;;;;;;;;;4.67;4.00;;;;;16.17;65.65;100867.69;2029475;27;2752847;-69
2024/04/04 00:03:45;;;;;;;;;5.25;4.50;;;;;16.17;66.23;100865.03;2051894;28;2742989;-69
2024/04/04 00:05:02;;;;;;;;;7.00;5.67;;;;;16.18;66.13;100857.94;2026446;28;3459689;-69
2024/04/04 00:06:13;;;;;;;;;6.00;4.00;;;;;16.17;66.17;100850.94;2046014;27;1815908;-69
2024/04/04 00:07:24;;;;;;;;;7.00;3.00;;;;;16.17;66.09;100857.09;2037514;27;2750279;-69
2024/04/04 00:08:37;;;;;;;;;6.67;4.00;;;;;16.18;66.31;100850.00;2037662;27;2746125;-69
2024/04/04 00:09:51;;;;;;;;;4.67;3.00;;;;;16.18;66.29;100858.81;2011185;27;2754531;-69
2024/04/04 00:11:12;;;;;;;;;4.00;4.00;;;;;16.16;66.25;100858.03;2035515;27;2741972;-70
2024/04/04 00:12:25;;;;;;;;;3.67;3.67;;;;;16.19;66.37;100855.22;2031441;27;2744005;-69
2024/04/04 00:13:35;;;;;;;;;4.33;2.67;;;;;16.17;66.47;100859.75;2033284;27;2748256;-69
2024/04/04 00:14:47;;;;;;;;;9.33;5.00;;;;;16.18;65.92;100853.50;2042202;27;3488840;-69
2024/04/04 00:15:59;;;;;;;;;6.33;4.33;;;;;16.18;66.00;100853.50;2031178;27;3461710;-69
2024/04/04 00:17:12;;;;;;;;;3.83;2.83;;;;;16.18;66.25;100853.50;2061809;27;2738830;-69
2024/04/04 00:18:23;;;;;;;;;5.33;4.00;;;;;16.18;66.14;100853.50;2012199;27;2745124;-69
2024/04/04 00:19:34;;;;;;;;;6.67;3.67;;;;;16.18;66.31;100839.38;2037614;27;3455441;-69
2024/04/04 00:20:44;;;;;;;;;3.00;3.00;;;;;16.18;66.16;100837.59;2043853;27;2754510;-69
2024/04/04 00:21:56;;;;;;;;;4.33;4.00;;;;;16.17;66.23;100838.53;2051523;27;2740897;-69
2024/04/04 00:23:06;;;;;;;;;3.33;2.33;;;;;16.19;66.34;100838.47;2004216;27;2742027;-69
2024/04/04 00:24:17;;;;;;;;;5.00;5.00;;;;;16.16;66.01;100836.84;2060116;27;2739880;-69
2024/04/04 00:25:27;;;;;;;;;7.33;3.00;;;;;16.17;66.46;100833.22;2007113;27;2755001;-69
2024/04/04 00:26:38;;;;;;;;;7.33;3.33;;;;;16.20;66.08;100837.50;2053010;27;3466922;-69
2024/04/04 00:27:49;;;;;;;;;7.33;3.00;;;;;16.20;66.04;100837.50;2049336;27;3473191;-69
2024/04/04 00:29:00;;;;;;;;;4.67;4.00;;;;;16.19;66.36;100828.72;2060745;27;2745080;-69
2024/04/04 00:30:11;;;;;;;;;3.67;3.67;;;;;16.17;66.13;100821.78;2012806;27;2754471;-69
2024/04/04 00:31:22;;;;;;;;;6.00;4.00;;;;;16.19;66.61;100827.84;2046257;27;3467963;-70
2024/04/04 00:32:33;;;;;;;;;5.00;4.00;;;;;16.15;66.42;100819.19;2047431;27;2745173;-69
2024/04/04 00:33:44;;;;;;;;;6.67;4.00;;;;;16.16;66.28;100818.28;2049883;27;3461698;-69
2024/04/04 00:34:54;;;;;;;;;6.00;3.00;;;;;16.18;66.43;100826.13;2048933;27;2754573;-69
2024/04/04 00:36:06;;;;;;;;;3.33;3.00;;;;;16.16;66.84;100822.72;2060525;27;2731983;-69
2024/04/04 00:37:16;;;;;;;;;6.00;4.00;;;;;16.18;66.65;100813.72;2007278;27;2754519;-69
2024/04/04 00:38:27;;;;;;;;;4.67;3.00;;;;;16.19;66.59;100807.50;2046777;27;2750284;-69
2024/04/04 00:39:38;;;;;;;;;3.00;2.67;;;;;16.18;66.14;100813.72;2034635;27;2744103;-69
2024/04/04 00:40:50;;;;;;;;;4.00;4.00;;;;;16.19;66.53;100818.13;2060587;27;2737793;-70
2024/04/04 00:42:00;;;;;;;;;4.00;4.00;;;;;16.18;66.03;100808.44;2034739;27;2740929;-69
2024/04/04 00:43:11;;;;;;;;;7.33;4.33;;;;;16.20;66.33;100814.50;2060576;27;2748178;-69
2024/04/04 00:44:21;;;;;;;;;5.33;4.00;;;;;16.19;66.51;100807.50;2034342;27;2744090;-69
2024/04/04 00:45:33;;;;;;;;;8.33;3.00;;;;;16.21;66.15;100807.41;2059516;27;2741939;-69
2024/04/04 00:46:47;;;;;;;;;6.50;3.83;;;;;16.22;66.20;100806.47;2039268;27;2733611;-69
2024/04/04 00:47:58;;;;;;;;;7.00;4.00;;;;;16.19;66.30;100796.03;2013428;27;2737879;-69
2024/04/04 00:49:12;;;;;;;;;2.50;2.33;;;;;16.17;65.97;100803.22;2060570;27;2729441;-69
2024/04/04 00:50:26;;;;;;;;;3.17;3.00;;;;;16.17;66.45;100800.56;2038119;27;2754429;-69
2024/04/04 00:51:37;;;;;;;;;6.00;2.33;;;;;16.16;66.58;100796.19;2009459;27;2754530;-69
2024/04/04 00:52:48;;;;;;;;;4.00;4.00;;;;;16.17;66.40;100801.41;2052819;28;2734671;-69
2024/04/04 00:53:58;;;;;;;;;6.00;4.00;;;;;16.17;66.73;100793.44;2026312;27;2754542;-69
2024/04/04 00:55:09;;;;;;;;;3.33;2.33;;;;;16.17;66.48;100796.09;2042300;27;2754497;-69
2024/04/04 00:56:21;;;;;;;;;5.00;5.00;;;;;16.18;66.34;100795.16;2043938;27;3463810;-69
2024/04/04 00:57:32;;;;;;;;;7.00;5.33;;;;;16.19;66.49;100794.25;2034531;27;3452890;-69
2024/04/04 00:58:46;;;;;;;;;4.83;3.17;;;;;16.17;66.67;100790.78;2060766;27;2744030;-69
2024/04/04 00:59:56;;;;;;;;;4.00;2.33;;;;;16.19;66.49;100777.47;2011493;27;2750253;-69
2024/04/04 01:01:08;;;;;;;;;3.33;2.33;;;;;16.19;66.40;100788.94;2054807;27;2734732;-69
2024/04/04 01:02:18;;;;;;;;;3.00;3.00;;;;;16.22;66.46;100782.63;2012703;27;2746110;-69
2024/04/04 01:03:29;;;;;;;;;6.33;3.67;;;;;16.22;66.41;100779.09;2052710;27;2752362;-69
2024/04/04 01:04:40;;;;;;;;;5.33;3.67;;;;;16.19;66.11;100781.00;2040946;27;2750277;-69
2024/04/04 01:05:51;;;;;;;;;4.00;2.67;;;;;16.20;66.37;100781.81;2059948;27;2744039;-69
2024/04/04 01:07:04;;;;;;;;;2.67;2.00;;;;;16.20;66.52;100787.97;2037922;27;2739841;-69
2024/04/04 01:08:20;;;;;;;;;2.67;2.67;;;;;16.23;66.35;100781.66;2038108;27;2738169;-69
2024/04/04 01:09:33;;;;;;;;;8.17;1.83;;;;;16.21;65.96;100775.59;2038601;27;2733652;-69
2024/04/04 01:10:43;;;;;;;;;5.33;3.00;;;;;16.20;66.69;100782.69;2011866;27;2754514;-69
2024/04/04 01:11:54;;;;;;;;;2.67;2.33;;;;;16.22;66.30;100781.75;2050480;27;2750655;-69
2024/04/04 01:13:05;;;;;;;;;4.33;3.00;;;;;16.23;66.34;100770.19;2044742;27;2754465;-69
2024/04/04 01:14:16;;;;;;;;;4.67;2.00;;;;;16.23;66.74;100767.53;2060250;27;2741957;-69
2024/04/04 01:15:27;;;;;;;;;4.00;3.00;;;;;16.20;66.42;100766.78;2012851;27;2749228;-70
2024/04/04 01:16:38;;;;;;;;;4.00;4.00;;;;;16.19;66.27;100769.53;2052802;27;2754453;-69
2024/04/04 01:17:49;;;;;;;;;2.00;2.00;;;;;16.18;66.91;100755.41;2049396;27;3452335;-69
2024/04/04 01:19:00;;;;;;;;;4.00;2.67;;;;;16.20;66.42;100773.88;2060422;27;2740375;-69
2024/04/04 01:20:13;;;;;;;;;7.83;2.83;;;;;16.17;66.62;100760.81;2039049;27;2740914;-69
2024/04/04 01:21:25;;;;;;;;;6.67;4.00;;;;;16.17;66.75;100761.63;2003279;28;2752429;-69
2024/04/04 01:22:38;;;;;;;;;5.00;3.17;;;;;16.18;66.57;100752.75;2052339;27;2750332;-69
2024/04/04 01:23:49;;;;;;;;;5.67;2.67;;;;;16.18;66.52;100762.50;2007659;27;2752350;-69
2024/04/04 01:25:00;;;;;;;;;3.00;3.00;;;;;16.19;66.68;100756.25;2051546;27;2750304;-69
2024/04/04 01:26:11;;;;;;;;;4.00;3.33;;;;;16.18;66.39;100759.84;2044280;27;2754524;-69
2024/04/04 01:27:22;;;;;;;;;5.00;3.33;;;;;16.18;66.85;100758.06;2034851;27;2754895;-69
2024/04/04 01:28:34;;;;;;;;;6.00;4.00;;;;;16.18;67.15;100755.41;2050865;27;2754483;-69
2024/04/04 01:29:47;;;;;;;;;2.67;2.50;;;;;16.18;66.75;100758.06;2061536;27;2744509;-69
2024/04/04 01:30:57;;;;;;;;;4.33;4.33;;;;;16.20;66.87;100763.25;2012154;27;2754435;-69
2024/04/04 01:32:08;;;;;;;;;5.00;3.67;;;;;16.18;66.96;100758.06;2050957;27;2754454;-69
2024/04/04 01:33:20;;;;;;;;;3.00;2.25;;;;;16.15;67.20;100757.38;2060489;27;2739876;-69
2024/04/04 01:34:33;;;;;;;;;4.00;3.17;;;;;16.15;67.41;100763.53;2061185;27;2738846;-69
2024/04/04 01:35:47;;;;;;;;;3.83;3.33;;;;;16.12;67.23;100761.06;2038394;27;2739851;-69
2024/04/04 01:37:00;;;;;;;;;6.83;3.83;;;;;16.11;67.11;100759.34;2036972;27;2737781;-69
2024/04/04 01:38:13;;;;;;;;;2.33;2.00;;;;;16.13;67.53;100756.59;2037616;27;2738842;-69
2024/04/04 01:39:26;;;;;;;;;3.00;3.00;;;;;16.11;67.02;100756.69;2028819;27;2746098;-69
2024/04/04 01:40:40;;;;;;;;;2.67;2.00;;;;;16.12;67.45;100755.75;2037809;27;2737764;-70
2024/04/04 01:41:54;;;;;;;;;3.00;3.00;;;;;16.11;67.50;100740.78;2036547;27;2739865;-70
2024/04/04 01:43:07;;;;;;;;;4.00;2.17;;;;;16.11;66.74;100748.72;2037776;27;2744032;-70
2024/04/04 01:44:23;;;;;;;;;2.83;2.67;;;;;16.10;67.43;100743.53;2037631;27;2737767;-69
2024/04/04 01:45:34;;;;;;;;;6.00;5.00;;;;;16.08;67.44;100746.25;2010609;27;2746118;-69
2024/04/04 01:46:45;;;;;;;;;2.33;2.33;;;;;16.08;67.23;100746.25;2052464;27;2733583;-69
2024/04/04 01:47:55;;;;;;;;;8.00;4.00;;;;;16.05;67.30;100751.75;2009904;27;2754471;-69
2024/04/04 01:49:06;;;;;;;;;6.67;3.00;;;;;16.06;67.11;100733.09;2050462;27;2748196;-69
2024/04/04 01:50:17;;;;;;;;;2.00;2.00;;;;;16.06;67.27;100750.78;2059840;27;2737758;-69
2024/04/04 01:51:28;;;;;;;;;4.00;2.33;;;;;16.06;67.31;100737.53;2013202;27;2744018;-69
2024/04/04 01:52:39;;;;;;;;;3.00;3.00;;;;;16.06;67.23;100732.22;2060304;27;2728426;-69
2024/04/04 01:53:52;;;;;;;;;3.17;2.17;;;;;16.05;67.48;100730.53;2057617;27;2747171;-69
2024/04/04 01:55:05;;;;;;;;;4.00;2.50;;;;;16.06;67.27;100734.88;2028838;28;2730513;-69
2024/04/04 01:56:18;;;;;;;;;5.67;2.50;;;;;16.05;67.31;100735.84;2034950;27;2742412;-69
2024/04/04 01:57:31;;;;;;;;;2.17;2.17;;;;;16.05;67.22;100720.75;2036194;27;2739876;-69
2024/04/04 01:58:45;;;;;;;;;4.83;2.00;;;;;16.05;67.05;100715.47;2036984;27;2733629;-69
2024/04/04 01:59:55;;;;;;;;;4.00;2.67;;;;;16.06;66.82;100724.28;2011403;27;2754504;-69
2024/04/04 02:01:06;;;;;;;;;4.67;2.00;;;;;16.07;67.04;100710.09;2046464;27;2748291;-69
2024/04/04 02:02:18;;;;;;;;;4.25;2.25;;;;;16.07;67.03;100712.75;2058131;27;2739958;-69
2024/04/04 02:03:31;;;;;;;;;2.00;1.83;;;;;16.09;67.07;100708.19;2060470;27;2737813;-69
2024/04/04 02:04:44;;;;;;;;;1.17;1.17;;;;;16.09;67.28;100710.84;2032056;27;2735710;-69
2024/04/04 02:05:57;;;;;;;;;4.50;3.83;;;;;16.10;66.94;100701.13;2029272;27;2739848;-69
2024/04/04 02:07:11;;;;;;;;;3.83;2.67;;;;;16.08;66.81;100709.13;2036712;27;2739852;-69
2024/04/04 02:08:21;;;;;;;;;6.00;4.00;;;;;16.07;66.71;100704.78;2003665;27;2754522;-69
2024/04/04 02:09:32;;;;;;;;;4.00;4.00;;;;;16.06;66.71;100700.41;2052187;27;2738823;-69
2024/04/04 02:10:45;;;;;;;;;4.50;2.33;;;;;16.07;66.61;100702.13;2031209;27;2741932;-70
2024/04/04 02:11:56;;;;;;;;;3.33;2.00;;;;;16.10;67.07;100709.06;2003100;28;2740894;-70
2024/04/04 02:13:07;;;;;;;;;7.00;4.00;;;;;16.08;66.88;100702.03;2039551;27;2748209;-70
2024/04/04 02:14:18;;;;;;;;;2.50;2.00;;;;;16.07;66.57;100702.13;2060241;27;2745384;-69
2024/04/04 02:15:38;;;;;;;;;4.83;2.17;;;;;16.08;66.91;100703.84;2037300;27;2750295;-70
2024/04/04 02:16:51;;;;;;;;;1.00;1.00;;;;;16.09;66.65;100700.25;2038183;27;2737772;-69
2024/04/04 02:18:01;;;;;;;;;3.00;3.00;;;;;16.12;66.67;100699.22;2010073;27;2754549;-69
2024/04/04 02:19:12;;;;;;;;;4.00;3.00;;;;;16.13;66.84;100691.16;2059888;27;2754432;-69
2024/04/04 02:20:26;;;;;;;;;3.83;3.00;;;;;16.11;66.52;100698.38;2036232;27;2750638;-69
2024/04/04 02:21:36;;;;;;;;;4.00;2.33;;;;;16.12;66.85;100692.13;2002903;28;2748174;-69
2024/04/04 02:22:49;;;;;;;;;3.33;2.33;;;;;16.12;66.63;100694.78;2052352;27;2746090;-69
2024/04/04 02:24:02;;;;;;;;;6.17;3.50;;;;;16.10;66.92;100690.50;2061526;27;2742997;-70
2024/04/04 02:25:13;;;;;;;;;2.33;2.33;;;;;16.09;67.00;100689.66;2012120;27;2754492;-69
2024/04/04 02:26:24;;;;;;;;;6.00;3.00;;;;;16.10;66.84;100688.69;2055435;27;2733606;-69
2024/04/04 02:27:37;;;;;;;;;4.00;2.83;;;;;16.10;66.71;100687.84;2030416;28;2737782;-70
2024/04/04 02:28:50;;;;;;;;;1.83;1.67;;;;;16.09;66.98;100684.34;2029848;28;2733602;-70
2024/04/04 02:30:04;;;;;;;;;4.17;2.17;;;;;16.07;67.19;100684.44;2030541;27;2733610;-70
2024/04/04 02:31:17;;;;;;;;;3.33;2.00;;;;;16.10;67.17;100685.19;2033520;27;2734648;-69
2024/04/04 02:32:28;;;;;;;;;2.67;2.00;;;;;16.10;67.12;100683.38;2003672;27;2746170;-70
2024/04/04 02:33:40;;;;;;;;;3.00;3.00;;;;;16.10;67.31;100691.34;2059847;27;2736037;-69
2024/04/04 02:34:55;;;;;;;;;2.00;1.50;;;;;16.10;67.14;100682.56;2061208;27;2735700;-70
2024/04/04 02:36:06;;;;;;;;;2.33;2.00;;;;;16.09;66.70;100671.09;2011079;27;2743992;-69
2024/04/04 02:37:16;;;;;;;;;3.33;2.33;;;;;16.08;66.88;100677.31;2028381;27;2749239;-70
2024/04/04 02:38:27;;;;;;;;;3.00;3.00;;;;;16.05;66.67;100667.75;2060248;27;2749698;-70
2024/04/04 02:39:41;;;;;;;;;2.33;2.17;;;;;16.06;66.82;100681.84;2059995;27;2744508;-70
2024/04/04 02:40:54;;;;;;;;;4.17;2.67;;;;;16.03;66.90;100682.84;2036344;27;2748181;-70
2024/04/04 02:42:08;;;;;;;;;4.17;3.00;;;;;16.03;66.91;100682.00;2037407;27;2739907;-70
2024/04/04 02:43:21;;;;;;;;;4.83;1.67;;;;;16.01;66.99;100671.50;2037036;27;2746205;-70
2024/04/04 02:44:35;;;;;;;;;2.00;1.00;;;;;16.03;67.31;100676.69;2037627;27;2738842;-70
2024/04/04 02:45:58;;;;;;;;;2.50;1.83;;;;;16.01;67.04;100678.59;2038112;27;2737801;-70
2024/04/04 02:47:11;;;;;;;;;3.00;1.67;;;;;16.01;67.00;100676.78;2038051;27;2733610;-70
2024/04/04 02:48:25;;;;;;;;;2.00;2.00;;;;;16.00;67.18;100669.78;2036666;27;2731539;-70
2024/04/04 02:49:38;;;;;;;;;4.67;2.83;;;;;16.00;67.25;100666.28;2036708;27;2739860;-70
2024/04/04 02:50:55;;;;;;;;;2.33;2.33;;;;;16.02;67.17;100686.47;2037951;27;2732645;-70
2024/04/04 02:52:08;;;;;;;;;2.17;2.17;;;;;15.98;67.31;100669.88;2039299;27;2736728;-70
2024/04/04 02:53:21;;;;;;;;;1.00;1.00;;;;;15.97;67.28;100664.66;2035304;27;2738817;-70
2024/04/04 02:54:35;;;;;;;;;3.00;1.33;;;;;16.00;66.99;100664.47;2036722;27;2738842;-70
2024/04/04 02:55:59;;;;;;;;;2.67;2.67;;;;;16.02;67.48;100677.66;2036669;27;2736774;-70
2024/04/04 02:57:12;;;;;;;;;3.67;3.00;;;;;16.01;67.42;100678.59;2037483;27;2752383;-69
2024/04/04 02:58:26;;;;;;;;;3.50;2.00;;;;;16.00;67.43;100675.06;2037193;27;2750311;-70
2024/04/04 02:59:39;;;;;;;;;2.00;2.00;;;;;15.98;67.81;100683.13;2037653;27;2739876;-70
2024/04/04 03:00:50;;;;;;;;;5.00;3.00;;;;;15.98;67.39;100676.97;2011035;27;2748193;-70
2024/04/04 03:02:03;;;;;;;;;2.33;2.33;;;;;15.97;67.48;100656.72;2059532;27;2746137;-70
2024/04/04 03:03:17;;;;;;;;;2.00;2.00;;;;;15.97;67.42;100673.47;2037419;27;2744023;-70
2024/04/04 03:04:30;;;;;;;;;4.33;2.83;;;;;15.95;67.77;100666.56;2039046;27;2736718;-70
2024/04/04 03:05:44;;;;;;;;;3.67;2.83;;;;;15.96;67.76;100661.16;2037649;27;2736747;-70
2024/04/04 03:06:55;;;;;;;;;3.33;3.33;;;;;15.93;68.08;100666.63;2012867;27;2754428;-70
2024/04/04 03:08:07;;;;;;;;;2.00;1.00;;;;;15.93;67.76;100673.72;2061813;27;2738829;-70
2024/04/04 03:09:20;;;;;;;;;1.33;1.17;;;;;15.91;67.79;100663.22;2063005;27;2728382;-70
2024/04/04 03:10:32;;;;;;;;;5.00;3.00;;;;;15.91;67.96;100670.31;2011334;27;2754566;-69
2024/04/04 03:11:45;;;;;;;;;1.83;1.83;;;;;15.90;68.26;100661.50;2055633;27;2739883;-69
2024/04/04 03:12:58;;;;;;;;;2.83;2.83;;;;;15.89;68.12;100657.16;2029793;27;2743028;-70
2024/04/04 03:14:09;;;;;;;;;4.00;2.00;;;;;15.89;68.40;100665.09;2012861;27;2748661;-70
2024/04/04 03:15:20;;;;;;;;;2.33;2.33;;;;;15.89;68.52;100654.50;2061289;27;2737793;-70
2024/04/04 03:16:33;;;;;;;;;1.83;1.50;;;;;15.88;68.71;100654.59;2060922;27;2733628;-70
2024/04/04 03:17:43;;;;;;;;;3.00;2.67;;;;;15.87;68.70;100648.44;2012205;27;2744371;-69
2024/04/04 03:18:54;;;;;;;;;4.00;4.00;;;;;15.87;68.33;100651.09;2053732;27;2750257;-69
2024/04/04 03:20:06;;;;;;;;;2.00;2.00;;;;;15.86;68.63;100641.41;2061434;27;2739828;-70
2024/04/04 03:21:17;;;;;;;;;4.67;2.33;;;;;15.84;68.47;100662.72;2034032;27;2750273;-70
2024/04/04 03:22:28;;;;;;;;;3.00;1.00;;;;;15.83;68.61;100650.38;2054718;27;2735721;-69
2024/04/04 03:23:38;;;;;;;;;3.67;2.00;;;;;15.81;68.26;100654.06;2034429;27;2750787;-69
2024/04/04 03:24:49;;;;;;;;;7.00;2.33;;;;;15.81;68.78;100654.94;2061173;27;2745055;-69
2024/04/04 03:26:02;;;;;;;;;3.33;2.00;;;;;15.77;68.52;100648.09;2037916;27;2734258;-68
2024/04/04 03:27:16;;;;;;;;;2.00;1.17;;;;;15.79;68.68;100634.75;2038629;27;2735741;-69
2024/04/04 03:28:29;;;;;;;;;3.50;2.50;;;;;15.78;68.84;100643.66;2038465;27;2735682;-69
2024/04/04 03:29:42;;;;;;;;;4.83;2.67;;;;;15.74;68.79;100635.88;2038110;27;2733587;-69
2024/04/04 03:30:55;;;;;;;;;2.50;2.50;;;;;15.74;69.03;100638.53;2038418;27;2727896;-69
2024/04/04 03:32:09;;;;;;;;;2.50;2.50;;;;;15.73;69.17;100646.53;2039388;27;2735745;-70
2024/04/04 03:33:19;;;;;;;;;3.67;3.00;;;;;15.70;69.01;100631.72;2007604;27;2754498;-70
2024/04/04 03:34:30;;;;;;;;;2.67;1.00;;;;;15.70;69.03;100631.72;2060843;27;2737796;-69
2024/04/04 03:35:43;;;;;;;;;4.50;2.83;;;;;15.71;69.18;100633.41;2038931;27;2744035;-69
2024/04/04 03:36:56;;;;;;;;;1.33;1.33;;;;;15.66;69.14;100630.16;2033210;27;2730482;-69
2024/04/04 03:38:10;;;;;;;;;3.67;2.00;;;;;15.66;69.10;100634.59;2034688;27;2738107;-70
2024/04/04 03:39:23;;;;;;;;;2.00;2.00;;;;;15.68;69.12;100630.09;2038139;27;2738890;-70
2024/04/04 03:40:36;;;;;;;;;3.67;2.83;;;;;15.66;69.06;100639.88;2037615;27;2738807;-69
2024/04/04 03:41:49;;;;;;;;;2.50;2.17;;;;;15.62;69.26;100623.31;2039597;27;2734658;-69
2024/04/04 03:43:03;;;;;;;;;1.83;1.83;;;;;15.62;69.11;100628.63;2038585;27;2743047;-69
2024/04/04 03:44:16;;;;;;;;;2.67;2.00;;;;;15.61;69.25;100625.13;2038531;27;2734683;-69
2024/04/04 03:45:29;;;;;;;;;2.00;2.00;;;;;15.60;69.31;100617.25;2031148;27;2738826;-69
2024/04/04 03:46:43;;;;;;;;;1.17;1.17;;;;;15.61;69.12;100637.50;2038501;27;2742969;-69
2024/04/04 03:47:57;;;;;;;;;2.67;2.50;;;;;15.60;69.21;100619.91;2037797;27;2734680;-70
2024/04/04 03:49:10;;;;;;;;;3.00;3.00;;;;;15.60;69.24;100627.84;2038774;27;2729416;-70
2024/04/04 03:50:24;;;;;;;;;2.00;2.00;;;;;15.59;69.23;100629.66;2037332;27;2735701;-69
2024/04/04 03:51:37;;;;;;;;;2.50;2.50;;;;;15.59;69.37;100631.44;2039449;27;2729432;-69
2024/04/04 03:52:50;;;;;;;;;2.50;2.17;;;;;15.59;69.35;100624.34;2038183;27;2725255;-69
2024/04/04 03:54:03;;;;;;;;;1.33;1.00;;;;;15.58;69.18;100630.56;2038147;27;2730543;-70
2024/04/04 03:55:16;;;;;;;;;2.17;2.17;;;;;15.55;69.40;100624.59;2037704;27;2741958;-69
2024/04/04 03:56:29;;;;;;;;;1.17;1.17;;;;;15.56;69.60;100623.66;2035583;27;2737769;-69
2024/04/04 03:57:43;;;;;;;;;2.50;2.00;;;;;15.54;69.46;100623.75;2029762;28;2733599;-70
2024/04/04 03:58:56;;;;;;;;;1.67;1.67;;;;;15.52;69.57;100631.78;2030334;28;2746130;-70
2024/04/04 04:00:10;;;;;;;;;1.33;1.33;;;;;15.53;70.17;100632.66;2029034;28;2744542;-70
2024/04/04 04:01:24;;;;;;;;;3.00;1.67;;;;;15.47;70.00;100617.94;2036654;27;2746645;-70
2024/04/04 04:02:37;;;;;;;;;2.33;2.17;;;;;15.50;69.72;100641.63;2032912;27;2740988;-69
2024/04/04 04:03:50;;;;;;;;;1.00;1.00;;;;;15.49;69.93;100631.97;2035408;27;2731555;-70
2024/04/04 04:05:04;;;;;;;;;1.67;1.67;;;;;15.50;70.08;100625.72;2037467;27;2739880;-69
2024/04/04 04:06:17;;;;;;;;;3.33;2.17;;;;;15.49;69.73;100629.31;2038776;27;2726371;-69
2024/04/04 04:07:30;;;;;;;;;2.17;2.17;;;;;15.45;70.10;100622.47;2037849;27;2737779;-69
2024/04/04 04:08:43;;;;;;;;;1.00;1.00;;;;;15.47;69.82;100633.84;2037974;27;2734101;-69
2024/04/04 04:09:56;;;;;;;;;3.00;3.00;;;;;15.44;69.96;100639.31;2038141;27;2732604;-69
2024/04/04 04:11:09;;;;;;;;;4.17;1.67;;;;;15.42;69.94;100622.66;2038214;27;2737809;-69
2024/04/04 04:12:23;;;;;;;;;1.17;1.00;;;;;15.46;70.11;100641.88;2037321;27;2727380;-69
2024/04/04 04:13:36;;;;;;;;;3.00;2.00;;;;;15.43;70.40;100634.97;2036572;27;2746155;-69
2024/04/04 04:14:50;;;;;;;;;2.83;2.83;;;;;15.44;70.09;100634.00;2038835;27;2734658;-69
2024/04/04 04:16:03;;;;;;;;;2.83;1.50;;;;;15.44;70.31;100636.66;2039602;27;2732581;-69
2024/04/04 04:17:16;;;;;;;;;1.83;1.50;;;;;15.45;70.38;100632.22;2037797;27;2727384;-69
2024/04/04 04:18:30;;;;;;;;;3.50;2.00;;;;;15.46;70.48;100633.94;2038326;27;2724225;-69
2024/04/04 04:19:43;;;;;;;;;2.33;2.17;;;;;15.44;70.49;100641.94;2037554;27;2745060;-69
2024/04/04 04:22:28;;;;;;;;;2.67;1.67;;;;;15.44;70.64;100652.53;2038878;27;2739137;-69
2024/04/04 04:23:41;;;;;;;;;2.33;2.33;;;;;15.45;70.78;100664.84;2033999;27;2729426;-69
2024/04/04 04:24:54;;;;;;;;;2.67;2.33;;;;;15.45;70.48;100648.97;2036985;27;2733603;-69
2024/04/04 04:26:07;;;;;;;;;2.00;2.00;;;;;15.44;70.55;100656.97;2037427;27;2744034;-69
2024/04/04 04:27:21;;;;;;;;;1.00;0.83;;;;;15.40;70.68;100651.00;2038815;27;2729425;-69
2024/04/04 04:28:35;;;;;;;;;3.00;1.50;;;;;15.39;70.64;100657.22;2037930;27;2737776;-69
2024/04/04 04:29:48;;;;;;;;;0.00;0.00;;;;;15.37;71.00;100657.31;2038750;27;2731507;-69
2024/04/04 04:31:02;;;;;;;;;1.00;1.00;;;;;15.33;70.58;100665.53;2030850;28;2733595;-69
2024/04/04 04:32:15;;;;;;;;;2.17;2.17;;;;;15.32;70.56;100662.03;2030350;28;2745068;-69
2024/04/04 04:33:28;;;;;;;;;2.17;2.17;;;;;15.30;70.80;100667.41;2030964;27;2736708;-69
2024/04/04 04:34:42;;;;;;;;;1.00;1.00;;;;;15.29;70.76;100652.44;2037166;27;2742978;-69
2024/04/04 04:35:55;;;;;;;;;0.50;0.50;;;;;15.28;70.88;100677.19;2037739;27;2734633;-68
2024/04/04 04:37:10;;;;;;;;;2.83;2.50;;;;;15.28;71.23;100660.47;2033747;27;2734659;-69
2024/04/04 04:38:23;;;;;;;;;3.50;1.50;;;;;15.24;71.05;100673.00;2030848;27;2738845;-69
2024/04/04 04:39:36;;;;;;;;;1.67;1.50;;;;;15.25;71.24;100689.75;2036547;27;2738815;-69
2024/04/04 04:40:51;;;;;;;;;2.33;1.17;;;;;15.23;71.05;100673.97;2037925;27;2736730;-69
2024/04/04 04:42:05;;;;;;;;;2.17;2.17;;;;;15.22;71.26;100674.91;2039005;27;2733606;-69
2024/04/04 04:43:15;;;;;;;;;4.00;3.00;;;;;15.23;71.23;100679.28;2012608;27;2750319;-69
2024/04/04 04:44:26;;;;;;;;;2.00;1.33;;;;;15.24;71.14;100678.31;2061394;27;2731515;-69
2024/04/04 04:45:39;;;;;;;;;2.83;2.50;;;;;15.22;71.18;100684.63;2059963;27;2732545;-69
2024/04/04 04:46:53;;;;;;;;;4.50;1.83;;;;;15.21;71.29;100670.53;2037842;27;2728398;-69
2024/04/04 04:48:06;;;;;;;;;2.33;2.00;;;;;15.16;71.74;100667.31;2037826;27;2736719;-69
2024/04/04 04:49:20;;;;;;;;;1.67;1.67;;;;;15.16;71.15;100668.13;2036610;27;2738810;-69
2024/04/04 04:50:33;;;;;;;;;4.17;2.00;;;;;15.11;71.18;100674.63;2039138;27;2727397;-69
2024/04/04 04:51:46;;;;;;;;;2.17;2.00;;;;;15.12;71.41;100679.84;2037039;27;2735702;-69
2024/04/04 04:52:59;;;;;;;;;2.17;2.17;;;;;15.12;71.54;100685.13;2036916;27;2740889;-69
2024/04/04 04:54:12;;;;;;;;;2.00;2.00;;;;;15.12;71.87;100689.56;2037501;27;2740897;-69
2024/04/04 04:55:26;;;;;;;;;1.67;1.67;;;;;15.13;71.65;100680.69;2038204;27;2739879;-69
2024/04/04 04:56:39;;;;;;;;;1.67;1.67;;;;;15.09;71.35;100687.09;2037331;27;2739899;-69
2024/04/04 04:57:52;;;;;;;;;3.00;2.00;;;;;15.08;71.54;100678.28;2035145;27;2746090;-69
2024/04/04 04:59:06;;;;;;;;;3.67;1.50;;;;;15.07;71.90;100690.66;2035773;27;2734652;-69
2024/04/04 05:00:22;;;;;;;;;3.00;1.83;;;;;15.04;71.87;100693.47;2037889;27;2731508;-69
2024/04/04 05:01:37;;;;;;;;;2.17;1.00;;;;;15.05;71.85;100689.91;2034199;27;2736762;-69
2024/04/04 05:02:51;;;;;;;;;1.00;1.00;;;;;15.05;71.81;100695.19;2032271;27;2744070;-69
2024/04/04 05:04:05;;;;;;;;;2.67;2.00;;;;;15.04;71.98;100685.53;2033783;27;2746105;-69
2024/04/04 05:05:19;;;;;;;;;2.00;2.00;;;;;15.05;71.82;100694.31;2037756;27;2744506;-69
2024/04/04 05:06:34;;;;;;;;;1.83;1.33;;;;;15.05;71.87;100697.84;2038204;27;2737820;-69
2024/04/04 05:07:47;;;;;;;;;3.83;2.67;;;;;15.05;72.13;100705.78;2034996;27;2737764;-69
2024/04/04 05:09:00;;;;;;;;;2.00;2.00;;;;;15.04;72.05;100693.47;2037389;27;2737844;-69
2024/04/04 05:10:13;;;;;;;;;2.17;2.00;;;;;15.05;72.18;100695.19;2037226;27;2729476;-69
2024/04/04 05:11:27;;;;;;;;;2.83;2.33;;;;;15.03;72.26;100696.22;2028889;27;2736736;-69
2024/04/04 05:12:40;;;;;;;;;2.33;1.00;;;;;15.04;71.94;100693.47;2029935;27;2732125;-69
2024/04/04 05:13:54;;;;;;;;;3.00;1.50;;;;;15.04;72.32;100704.06;2031598;27;2744073;-69
2024/04/04 05:15:07;;;;;;;;;1.67;1.67;;;;;15.03;71.96;100707.66;2033295;27;2729452;-69
2024/04/04 05:16:20;;;;;;;;;2.17;1.50;;;;;15.01;72.36;100711.31;2029359;27;2744013;-69
2024/04/04 05:17:33;;;;;;;;;2.67;2.67;;;;;15.00;72.55;100706.94;2033887;27;2730470;-69
2024/04/04 05:18:46;;;;;;;;;4.00;1.50;;;;;15.01;72.57;100709.53;2035142;27;2739884;-69
2024/04/04 05:20:00;;;;;;;;;2.00;1.00;;;;;15.02;72.59;100710.34;2052651;27;2737836;-69
2024/04/04 05:21:13;;;;;;;;;2.00;1.50;;;;;15.02;72.60;100713.88;2037037;27;2737777;-69
2024/04/04 05:22:29;;;;;;;;;2.50;1.67;;;;;15.03;72.43;100717.38;2034715;27;2746115;-69
2024/04/04 05:23:42;;;;;;;;;1.33;1.33;;;;;15.05;72.47;100715.50;2034339;27;2731515;-69
2024/04/04 05:24:56;;;;;;;;;2.00;2.00;;;;;15.06;72.54;100709.28;2035982;27;2738815;-69
2024/04/04 05:26:12;;;;;;;;;1.17;1.00;;;;;15.05;72.65;100716.38;2036629;27;2737781;-69
2024/04/04 05:27:25;;;;;;;;;2.33;2.33;;;;;15.08;72.50;100718.00;2032045;27;2732668;-69
2024/04/04 05:28:36;;;;;;;;;6.00;5.00;;;;;15.09;72.69;100718.84;2011071;27;2745094;-69
2024/04/04 05:29:52;;;;;;;;;3.67;1.50;;;;;15.08;72.75;100725.94;2057964;27;2734636;-69
2024/04/04 05:31:05;;;;;;;;;2.67;1.67;;;;;15.07;72.38;100724.22;2029219;27;2740935;-69